Time;durP1;ratioP1;P1;durP2;ratioP2;P2;SDS_P1;SDS_P2;PMS_P1;PMS_P2;Temp;Humidity;BMP_temperature;BMP_pressure;BME280_temperature;BME280_humidity;BME280_pressure;Samples;Min_cycle;Max_cycle;Signal;HPM_P1;HPM_P2
2023/04/28 00:03:05;;;;;;;12.90;5.30;;;;;;;12.24;47.19;99730.44;10512590;28;20460;-60
2023/04/28 00:08:07;;;;;;;13.45;5.78;;;;;;;11.99;46.86;99719.97;10512141;28;20044;-60
2023/04/28 00:13:09;;;;;;;12.52;5.75;;;;;;;11.91;46.97;99720.50;10511489;28;20056;-60
2023/04/28 00:18:11;;;;;;;12.15;6.05;;;;;;;12.01;47.05;99710.22;10512141;28;20048;-60
2023/04/28 00:23:13;;;;;;;12.25;6.95;;;;;;;11.99;47.32;99718.19;10510910;28;20397;-60
2023/04/28 00:28:15;;;;;;;12.48;6.35;;;;;;;12.07;48.03;99697.53;10512514;28;20036;-60
2023/04/28 00:33:33;;;;;;;16.75;7.18;;;;;;;12.08;47.76;99693.13;10511718;28;20093;-61
2023/04/28 00:38:35;;;;;;;13.95;7.03;;;;;;;12.15;47.79;99696.97;10475045;28;20105;-60
2023/04/28 00:43:47;;;;;;;15.00;6.28;;;;;;;12.18;48.24;99686.28;10480814;28;20437;-61
2023/04/28 00:48:49;;;;;;;15.48;7.35;;;;;;;12.17;48.01;99683.78;10523243;28;20484;-61
2023/04/28 00:53:51;;;;;;;11.48;5.90;;;;;;;12.15;48.54;99669.00;10509732;28;20326;-60
2023/04/28 00:58:53;;;;;;;12.32;6.45;;;;;;;12.14;49.30;99669.94;10508478;28;20032;-61
2023/04/28 01:03:55;;;;;;;11.48;6.60;;;;;;;12.08;50.00;99665.13;10474865;28;20071;-60
2023/04/28 01:08:58;;;;;;;8.52;5.65;;;;;;;11.99;50.30;99651.81;10477097;28;20051;-60
2023/04/28 01:13:59;;;;;;;10.73;5.72;;;;;;;11.97;50.61;99651.94;10509325;28;20143;-60
2023/04/28 01:19:07;;;;;;;11.65;5.55;;;;;;;11.90;51.06;99648.09;10487125;28;20650;-60
2023/04/28 01:24:11;;;;;;;11.48;5.53;;;;;;;11.70;50.43;99645.97;10475547;28;20047;-61
2023/04/28 01:29:13;;;;;;;10.30;4.93;;;;;;;11.46;51.11;99638.97;10508858;28;20476;-60
2023/04/28 01:34:16;;;;;;;11.45;5.90;;;;;;;11.41;51.35;99638.44;10474158;28;20555;-60
2023/04/28 01:39:19;;;;;;;10.60;6.30;;;;;;;11.46;52.96;99628.50;10508888;28;20040;-60
2023/04/28 01:44:20;;;;;;;12.23;6.65;;;;;;;11.43;53.64;99620.84;10509421;28;20424;-60
2023/04/28 01:49:22;;;;;;;9.85;5.97;;;;;;;11.39;53.80;99622.84;10507989;28;20510;-60
2023/04/28 01:54:26;;;;;;;13.10;7.10;;;;;;;11.01;54.51;99632.41;10472750;28;20040;-60
2023/04/28 01:59:28;;;;;;;11.35;7.47;;;;;;;10.85;54.71;99629.94;10490363;28;21016;-60
2023/04/28 02:04:30;;;;;;;12.57;7.00;;;;;;;10.81;54.30;99625.84;10494578;28;20134;-60
2023/04/28 02:09:32;;;;;;;10.38;6.97;;;;;;;11.02;55.20;99623.59;10497515;28;20064;-60
2023/04/28 02:14:34;;;;;;;12.07;7.93;;;;;;;11.05;56.36;99613.78;10489874;28;20563;-60
2023/04/28 02:19:37;;;;;;;13.57;6.78;;;;;;;11.05;56.99;99612.97;10514074;28;20122;-61
2023/04/28 02:24:39;;;;;;;12.30;7.50;;;;;;;10.63;57.92;99616.56;10480795;28;20040;-60
2023/04/28 02:29:41;;;;;;;12.02;6.97;;;;;;;10.61;57.55;99608.00;10496990;28;20044;-60
2023/04/28 02:34:43;;;;;;;11.23;7.15;;;;;;;10.75;58.19;99600.09;10514987;28;20139;-60
2023/04/28 02:39:45;;;;;;;15.05;7.40;;;;;;;10.80;58.23;99590.16;10515127;28;20052;-60
2023/04/28 02:44:48;;;;;;;11.90;7.95;;;;;;;10.45;59.31;99591.63;10497398;28;20079;-60
2023/04/28 02:49:50;;;;;;;9.85;6.30;;;;;;;10.36;59.46;99582.59;10511771;28;20070;-60
2023/04/28 02:54:55;;;;;;;9.38;5.95;;;;;;;10.38;58.10;99566.81;10492832;28;20134;-60
2023/04/28 02:59:57;;;;;;;11.88;6.93;;;;;;;10.44;58.42;99579.47;10494825;28;20143;-60
2023/04/28 03:05:03;;;;;;;14.57;7.35;;;;;;;10.41;59.07;99577.91;10500461;28;20221;-61
2023/04/28 03:10:05;;;;;;;11.93;7.20;;;;;;;10.17;59.63;99576.88;10481175;28;20059;-60
2023/04/28 03:15:08;;;;;;;14.20;7.50;;;;;;;10.27;59.60;99582.34;10496203;28;20094;-60
2023/04/28 03:20:11;;;;;;;15.65;7.32;;;;;;;10.32;59.35;99567.19;10480142;28;20726;-61
2023/04/28 03:25:14;;;;;;;11.23;7.22;;;;;;;10.37;58.90;99565.97;10496236;28;20619;-60
2023/04/28 03:30:21;;;;;;;15.98;9.40;;;;;;;10.16;59.89;99558.66;10512500;28;20710;-62
2023/04/28 03:35:23;;;;;;;15.82;8.05;;;;;;;10.09;60.25;99549.56;10494914;28;20056;-60
2023/04/28 03:40:25;;;;;;;16.40;9.50;;;;;;;10.10;60.38;99564.28;10513344;28;20393;-60
2023/04/28 03:45:42;;;;;;;12.23;8.13;;;;;;;10.16;59.98;99556.91;10514623;28;20075;-60
2023/04/28 03:50:44;;;;;;;10.98;7.40;;;;;;;10.21;59.07;99546.16;10493668;28;20056;-60
2023/04/28 03:55:46;;;;;;;13.13;9.48;;;;;;;10.37;59.89;99537.22;10494978;28;20047;-60
2023/04/28 04:00:48;;;;;;;18.77;10.45;;;;;;;10.53;60.59;99537.06;10494102;28;20048;-61
2023/04/28 04:05:50;;;;;;;12.65;9.02;;;;;;;10.61;60.21;99533.94;10512573;28;20051;-61
2023/04/28 04:10:53;;;;;;;16.00;10.45;;;;;;;10.60;60.71;99537.50;10511275;28;20071;-61
2023/04/28 04:15:55;;;;;;;18.27;9.65;;;;;;;10.44;60.87;99528.03;10510114;28;20040;-60
2023/04/28 04:20:58;;;;;;;17.92;10.40;;;;;;;10.48;61.06;99528.69;10477335;28;20357;-61
2023/04/28 04:26:01;;;;;;;12.68;9.20;;;;;;;10.41;60.30;99528.25;10492102;28;20063;-60
2023/04/28 04:31:03;;;;;;;16.65;9.88;;;;;;;10.18;60.70;99528.03;10477512;28;20052;-60
2023/04/28 04:36:05;;;;;;;14.20;9.20;;;;;;;10.20;60.94;99524.41;10510382;28;20382;-61
2023/04/28 04:41:07;;;;;;;14.13;9.48;;;;;;;10.27;60.72;99514.41;10488554;28;20048;-61
2023/04/28 04:46:09;;;;;;;17.95;9.95;;;;;;;10.33;60.81;99529.69;10511276;28;20378;-61
2023/04/28 04:51:10;;;;;;;23.90;14.48;;;;;;;10.05;61.58;99530.63;10510048;28;20071;-61
2023/04/28 04:56:13;;;;;;;15.63;11.60;;;;;;;9.87;62.37;99525.72;10504731;28;20134;-61
2023/04/28 05:01:15;;;;;;;16.23;11.10;;;;;;;10.07;62.28;99520.06;10490735;28;20042;-61
2023/04/28 05:06:17;;;;;;;16.88;11.07;;;;;;;10.19;61.98;99522.75;10474772;28;20048;-61
2023/04/28 05:11:25;;;;;;;16.20;10.60;;;;;;;10.31;61.71;99518.50;10492317;28;20059;-61
2023/04/28 05:16:27;;;;;;;18.73;11.05;;;;;;;10.30;61.99;99529.88;10475099;28;20475;-61
2023/04/28 05:21:41;;;;;;;17.02;10.80;;;;;;;10.17;61.91;99535.06;10510529;28;20059;-61
2023/04/28 05:26:42;;;;;;;15.82;10.80;;;;;;;10.16;61.67;99537.75;10523920;28;20507;-61
2023/04/28 05:31:44;;;;;;;17.80;10.70;;;;;;;10.13;62.02;99538.81;10475640;28;20048;-61
2023/04/28 05:36:46;;;;;;;14.88;9.18;;;;;;;10.17;60.99;99547.28;10490648;28;20063;-61
2023/04/28 05:41:48;;;;;;;15.52;10.10;;;;;;;10.03;61.07;99542.97;10490658;28;20035;-61
2023/04/28 05:46:50;;;;;;;17.58;10.35;;;;;;;9.96;61.74;99551.25;10478151;28;20329;-61
2023/04/28 05:51:57;;;;;;;16.80;10.18;;;;;;;10.22;61.73;99553.88;10489979;28;20412;-61
2023/04/28 05:57:00;;;;;;;18.77;11.52;;;;;;;10.29;61.22;99555.19;10504364;28;20040;-63
2023/04/28 06:02:03;;;;;;;13.80;9.43;;;;;;;10.11;61.10;99537.22;10491435;28;20518;-63
2023/04/28 06:07:05;;;;;;;14.43;10.35;;;;;;;9.74;61.86;99536.09;10473831;28;20569;-63
2023/04/28 06:12:10;;;;;;;16.77;11.40;;;;;;;9.76;62.40;99544.69;10485587;28;20392;-63
2023/04/28 06:17:14;;;;;;;17.38;11.77;;;;;;;9.82;62.71;99538.22;10499523;28;20636;-63
2023/04/28 06:22:16;;;;;;;19.00;12.18;;;;;;;9.86;62.77;99524.88;10519263;28;20082;-63
2023/04/28 06:27:23;;;;;;;17.63;11.15;;;;;;;10.13;62.44;99519.69;10469565;28;20193;-63
2023/04/28 06:32:25;;;;;;;23.27;12.30;;;;;;;10.20;62.60;99536.63;10523853;28;20163;-63
2023/04/28 06:37:27;;;;;;;16.80;11.93;;;;;;;10.32;62.70;99528.00;10493658;28;20052;-63
2023/04/28 06:42:29;;;;;;;22.40;15.30;;;;;;;10.51;62.65;99531.09;10496327;28;20506;-63
2023/04/28 06:47:39;;;;;;;17.60;11.27;;;;;;;10.45;62.08;99510.59;10498293;28;20072;-63
2023/04/28 06:52:42;;;;;;;29.17;15.48;;;;;;;10.39;62.86;99510.97;10497869;28;20047;-63
2023/04/28 06:57:45;;;;;;;19.67;12.95;;;;;;;10.35;62.71;99505.13;10495378;28;20500;-63
2023/04/28 07:02:46;;;;;;;16.50;13.57;;;;;;;10.42;62.93;99487.25;10492690;28;20595;-63
2023/04/28 07:07:49;;;;;;;21.63;12.45;;;;;;;10.67;62.63;99471.59;10516373;28;20062;-63
2023/04/28 07:12:51;;;;;;;20.95;13.38;;;;;;;10.89;62.04;99458.75;10497011;28;20052;-63
2023/04/28 07:17:53;;;;;;;19.15;13.50;;;;;;;10.78;61.86;99479.56;10510753;28;20040;-63
2023/04/28 07:22:54;;;;;;;21.40;13.95;;;;;;;10.64;62.70;99497.13;10514640;28;20055;-64
2023/04/28 07:27:56;;;;;;;19.90;13.18;;;;;;;10.52;63.27;99504.03;10515256;28;20047;-64
2023/04/28 07:32:58;;;;;;;20.35;13.30;;;;;;;10.55;63.28;99514.25;10515338;28;20139;-64
2023/04/28 07:38:01;;;;;;;20.20;14.15;;;;;;;10.37;63.33;99511.09;10513826;28;20063;-63
2023/04/28 07:43:03;;;;;;;18.80;12.55;;;;;;;10.30;63.57;99498.50;10510543;28;20050;-62
2023/04/28 07:48:05;;;;;;;17.83;14.20;;;;;;;10.38;64.08;99512.75;10506891;28;20442;-62
2023/04/28 07:53:08;;;;;;;18.13;13.25;;;;;;;10.58;63.45;99513.22;10507772;28;20043;-61
2023/04/28 07:58:11;;;;;;;18.45;13.23;;;;;;;10.69;63.39;99518.56;10486085;28;21393;-61
2023/04/28 08:03:13;;;;;;;18.48;13.00;;;;;;;10.85;63.27;99512.22;10506754;28;20156;-61
2023/04/28 08:08:15;;;;;;;16.27;12.30;;;;;;;10.96;62.97;99509.72;10513543;28;20161;-61
2023/04/28 08:13:17;;;;;;;21.33;14.10;;;;;;;11.14;62.04;99518.97;10527717;28;20142;-61
2023/04/28 08:18:19;;;;;;;18.00;12.60;;;;;;;11.32;62.55;99512.44;10512911;28;20050;-61
2023/04/28 08:23:21;;;;;;;17.73;11.77;;;;;;;11.36;62.00;99522.72;10511954;28;20169;-61
2023/04/28 08:28:22;;;;;;;22.10;14.75;;;;;;;11.62;62.20;99517.31;10494510;28;20066;-61
2023/04/28 08:33:24;;;;;;;29.38;14.13;;;;;;;11.83;61.01;99520.19;10511154;28;20055;-61
2023/04/28 08:38:26;;;;;;;24.70;14.38;;;;;;;11.86;60.84;99520.00;10477662;28;20386;-61
2023/04/28 08:43:29;;;;;;;20.73;14.05;;;;;;;12.10;61.34;99524.31;10510121;28;20047;-62
2023/04/28 08:48:37;;;;;;;19.75;15.07;;;;;;;11.92;61.41;99530.03;10512157;28;20080;-61
2023/04/28 08:53:44;;;;;;;21.95;13.60;;;;;;;12.29;61.41;99536.97;10511406;28;20538;-61
2023/04/28 08:59:05;;;;;;;20.10;14.57;;;;;;;12.57;60.13;99533.13;10511297;28;20067;-61
2023/04/28 09:04:09;;;;;;;21.55;13.90;;;;;;;12.45;60.69;99536.66;10510559;28;20522;-62
2023/04/28 09:09:29;;;;;;;15.48;12.90;;;;;;;12.78;60.51;99536.81;10510520;28;20044;-61
2023/04/28 09:14:37;;;;;;;19.02;12.88;;;;;;;13.01;59.12;99535.88;10509818;28;20055;-61
2023/04/28 09:19:42;;;;;;;21.45;13.45;;;;;;;13.09;58.34;99528.25;10510580;28;20455;-62
2023/04/28 09:24:45;;;;;;;21.70;13.30;;;;;;;13.02;58.28;99518.34;10509002;28;20511;-61
2023/04/28 09:29:52;;;;;;;19.73;13.07;;;;;;;13.13;58.26;99511.31;10484731;28;20044;-61
2023/04/28 09:34:55;;;;;;;15.23;12.45;;;;;;;13.52;57.93;99515.31;10509583;28;20043;-62
2023/04/28 09:40:11;;;;;;;17.50;13.63;;;;;;;13.49;57.56;99520.81;10510607;28;20048;-61
2023/04/28 09:45:15;;;;;;;20.45;12.80;;;;;;;14.01;57.15;99497.31;10509202;28;20385;-62
2023/04/28 09:50:17;;;;;;;17.30;13.88;;;;;;;14.68;57.00;99504.97;10508263;28;20040;-61
2023/04/28 09:55:19;;;;;;;14.38;11.85;;;;;;;15.13;55.61;99494.03;10509529;28;20060;-62
2023/04/28 10:00:22;;;;;;;17.38;12.80;;;;;;;15.20;55.58;99491.72;10509262;28;20139;-61
2023/04/28 10:05:24;;;;;;;14.65;11.85;;;;;;;15.95;53.14;99482.44;10509911;28;20085;-62
2023/04/28 10:10:27;;;;;;;18.52;12.20;;;;;;;16.04;54.68;99489.50;10493542;28;20135;-62
2023/04/28 10:15:30;;;;;;;15.05;11.95;;;;;;;16.53;52.98;99471.94;10518097;28;20043;-61
2023/04/28 10:20:32;;;;;;;14.38;11.15;;;;;;;16.52;53.44;99442.06;10517619;28;20134;-61
2023/04/28 10:25:35;;;;;;;14.50;11.38;;;;;;;16.86;52.03;99447.69;10483019;28;20084;-63
2023/04/28 10:30:37;;;;;;;13.60;10.63;;;;;;;17.40;52.37;99446.97;10499852;28;20494;-62
2023/04/28 10:35:43;;;;;;;15.25;11.30;;;;;;;17.33;50.44;99444.06;10516314;28;20532;-64
2023/04/28 10:40:49;;;;;;;18.50;10.95;;;;;;;17.32;51.13;99444.19;10517881;28;20126;-63
2023/04/28 10:45:51;;;;;;;18.63;10.23;;;;;;;17.33;51.61;99433.50;10516214;28;20214;-63
2023/04/28 10:56:05;;;;;;;15.40;10.27;;;;;;;17.34;51.92;99427.25;10516487;28;20577;-63
2023/04/28 11:01:30;;;;;;;18.58;10.10;;;;;;;17.78;51.90;99404.44;10515983;28;20055;-63
2023/04/28 11:06:39;;;;;;;19.38;10.50;;;;;;;17.83;52.38;99396.91;10515634;28;20450;-63
2023/04/28 11:11:53;;;;;;;15.05;9.75;;;;;;;18.30;51.48;99408.09;10516289;28;20122;-63
2023/04/28 11:17:03;;;;;;;17.33;9.35;;;;;;;18.47;50.73;99399.28;10513730;28;20454;-63
2023/04/28 11:22:14;;;;;;;16.77;9.48;;;;;;;17.85;51.26;99387.81;10514966;28;20567;-63
2023/04/28 11:27:23;;;;;;;16.25;8.93;;;;;;;17.62;53.51;99389.25;10529204;28;20821;-63
2023/04/28 11:32:32;;;;;;;15.20;9.25;;;;;;;17.50;53.99;99389.59;10515380;28;20056;-63
2023/04/28 11:37:34;;;;;;;;;;;;;;;17.54;55.19;99381.22;10515623;28;20408;-63
2023/04/28 11:42:46;;;;;;;12.52;9.00;;;;;;;17.85;53.90;99376.41;10514641;28;19924;-63
2023/04/28 11:47:48;;;;;;;9.25;6.72;;;;;;;18.22;54.96;99379.72;10514257;28;20120;-63
2023/04/28 11:52:50;;;;;;;9.05;6.68;;;;;;;18.92;53.13;99364.63;10514199;28;20047;-63
2023/04/28 11:58:16;;;;;;;13.73;8.00;;;;;;;19.10;51.17;99362.75;10514337;28;20036;-63
2023/04/28 12:03:18;;;;;;;9.35;6.45;;;;;;;19.28;52.18;99355.53;10479067;28;20036;-64
2023/04/28 12:08:27;;;;;;;9.18;6.00;;;;;;;19.56;51.30;99346.34;10490858;28;20044;-63
2023/04/28 12:13:29;;;;;;;5.78;4.25;;;;;;;19.54;51.19;99329.78;10495727;28;20084;-63
2023/04/28 12:18:31;;;;;;;5.38;3.75;;;;;;;19.76;51.21;99331.78;10512666;28;20295;-63
2023/04/28 12:23:35;;;;;;;3.80;2.05;;;;;;;20.38;50.96;99321.53;10512313;28;20042;-63
2023/04/28 12:28:43;;;;;;;2.40;1.50;;;;;;;20.92;48.00;99320.75;10513413;28;20500;-63
2023/04/28 12:33:45;;;;;;;2.90;1.80;;;;;;;21.25;47.65;99321.41;10511932;28;20575;-64
2023/04/28 12:38:48;;;;;;;1.80;1.40;;;;;;;21.41;47.21;99310.72;10513029;28;20125;-63
2023/04/28 12:43:50;;;;;;;2.70;1.40;;;;;;;21.46;46.77;99311.84;10512179;28;20197;-63
2023/04/28 12:48:52;;;;;;;3.25;1.85;;;;;;;21.37;46.93;99320.06;10512685;28;20149;-64
2023/04/28 12:53:54;;;;;;;1.95;1.40;;;;;;;21.06;47.29;99320.00;10511538;28;20390;-63
2023/04/28 12:58:56;;;;;;;2.03;1.30;;;;;;;20.73;47.47;99323.78;10500911;28;20086;-63
2023/04/28 13:03:58;;;;;;;1.75;1.20;;;;;;;20.56;47.19;99307.03;10505479;28;20044;-63
2023/04/28 13:09:00;;;;;;;2.05;1.30;;;;;;;20.68;47.57;99308.34;10502001;28;20059;-64
2023/04/28 13:14:03;;;;;;;2.22;1.25;;;;;;;20.97;46.26;99299.75;10497791;28;20577;-63
2023/04/28 13:19:12;;;;;;;3.53;1.30;;;;;;;21.15;46.05;99291.56;10504808;28;20054;-63
2023/04/28 13:24:16;;;;;;;2.75;1.30;;;;;;;20.98;46.46;99273.03;10508205;28;20461;-62
2023/04/28 13:29:18;;;;;;;1.85;1.20;;;;;;;20.73;46.21;99279.44;10505322;28;20357;-63
2023/04/28 13:34:20;;;;;;;2.22;1.20;;;;;;;19.85;48.22;99276.91;10509860;28;21092;-63
2023/04/28 13:39:22;;;;;;;4.50;1.75;;;;;;;18.99;51.46;99286.97;10509766;28;20051;-63
2023/04/28 13:44:24;;;;;;;8.00;3.22;;;;;;;18.14;56.28;99329.34;10508401;28;20710;-62
2023/04/28 13:49:28;;;;;;;91.55;5.15;;;;;;;17.28;59.11;99395.25;10517953;28;20137;-63
2023/04/28 13:54:30;;;;;;;8.98;3.70;;;;;;;15.72;64.80;99341.25;10506967;28;20083;-63
2023/04/28 13:59:32;;;;;;;6.05;2.50;;;;;;;15.86;65.17;99329.44;10508052;28;20051;-63
2023/04/28 14:04:35;;;;;;;5.68;2.20;;;;;;;16.62;64.13;99307.41;10509540;28;20050;-63
2023/04/28 14:09:39;;;;;;;7.72;3.15;;;;;;;17.01;63.37;99319.47;10507702;28;20046;-63
2023/04/28 14:14:41;;;;;;;5.65;2.80;;;;;;;17.24;62.30;99312.75;10509858;28;20048;-63
2023/04/28 14:19:43;;;;;;;7.60;2.78;;;;;;;17.29;62.70;99328.19;10507730;28;20129;-63
2023/04/28 14:24:45;;;;;;;4.85;2.42;;;;;;;17.24;62.72;99304.03;10490882;28;20759;-63
2023/04/28 14:29:48;;;;;;;8.50;2.92;;;;;;;17.18;63.91;99315.19;10504029;28;20048;-64
2023/04/28 14:34:50;;;;;;;4.97;2.80;;;;;;;17.57;63.85;99292.81;10509037;28;20657;-63
2023/04/28 14:39:52;;;;;;;4.90;2.45;;;;;;;17.71;62.85;99293.13;10507481;28;20044;-63
2023/04/28 14:44:53;;;;;;;6.28;2.60;;;;;;;17.55;63.43;99294.78;10509213;28;20578;-63
2023/04/28 14:49:56;;;;;;;6.75;2.10;;;;;;;17.39;63.43;99291.97;10507680;28;20101;-63
2023/04/28 14:54:59;;;;;;;4.50;1.80;;;;;;;17.15;63.82;99297.81;10507790;28;20385;-63
2023/04/28 15:00:02;;;;;;;6.30;2.10;;;;;;;17.12;64.07;99305.22;10479034;28;20036;-63
2023/04/28 15:05:04;;;;;;;4.88;2.03;;;;;;;17.16;64.09;99288.09;10515068;28;20043;-63
2023/04/28 15:10:07;;;;;;;5.88;2.53;;;;;;;17.00;64.63;99280.78;10514427;28;20136;-63
2023/04/28 15:15:10;;;;;;;4.45;1.83;;;;;;;16.93;64.28;99279.75;10514216;28;20139;-63
2023/04/28 15:20:11;;;;;;;4.18;2.28;;;;;;;16.88;65.10;99280.16;10514663;28;20036;-63
2023/04/28 15:25:14;;;;;;;4.55;2.35;;;;;;;16.88;64.57;99280.16;10514177;28;20874;-63
2023/04/28 15:30:17;;;;;;;10.10;4.60;;;;;;;16.80;65.63;99281.88;10513393;28;20526;-63
2023/04/28 15:35:20;;;;;;;7.88;4.30;;;;;;;16.68;66.05;99289.16;10493816;28;20056;-63
2023/04/28 15:40:21;;;;;;;5.30;3.30;;;;;;;16.36;66.83;99293.16;10512800;28;20048;-63
2023/04/28 15:45:23;;;;;;;9.85;4.22;;;;;;;16.36;66.86;99316.91;10495075;28;20543;-64
2023/04/28 15:50:25;;;;;;;4.80;2.72;;;;;;;16.48;67.43;99313.97;10507651;28;20492;-63
2023/04/28 15:55:27;;;;;;;13.48;3.30;;;;;;;17.24;67.00;99296.91;10499066;28;20550;-63
2023/04/28 16:00:29;;;;;;;4.85;2.45;;;;;;;17.72;65.15;99267.50;10504375;28;20039;-63
2023/04/28 16:05:31;;;;;;;4.60;3.05;;;;;;;18.31;64.78;99248.28;10483769;28;20551;-63
2023/04/28 16:10:33;;;;;;;4.75;2.40;;;;;;;18.63;63.42;99246.63;10491776;28;20135;-63
2023/04/28 16:15:35;;;;;;;4.38;2.55;;;;;;;18.45;64.20;99259.13;10492841;28;20051;-63
2023/04/28 16:20:37;;;;;;;3.85;2.25;;;;;;;18.20;63.64;99259.16;10526289;28;20449;-63
2023/04/28 16:25:39;;;;;;;3.47;2.08;;;;;;;17.97;63.76;99265.88;10491888;28;20175;-63
2023/04/28 16:30:42;;;;;;;6.07;3.10;;;;;;;18.16;64.48;99282.38;10509580;28;20135;-63
2023/04/28 16:35:43;;;;;;;4.68;2.63;;;;;;;18.14;64.81;99294.09;10508510;28;20048;-62
2023/04/28 16:40:45;;;;;;;4.95;2.70;;;;;;;18.52;65.01;99270.72;10489614;28;20139;-63
2023/04/28 16:45:47;;;;;;;5.63;2.90;;;;;;;18.83;64.99;99264.91;10508522;28;20040;-62
2023/04/28 16:50:49;;;;;;;6.72;3.13;;;;;;;18.80;64.95;99259.94;10510126;28;20059;-64
2023/04/28 16:55:51;;;;;;;7.00;2.55;;;;;;;18.51;65.25;99257.66;10507745;28;20700;-64
2023/04/28 17:00:53;;;;;;;4.68;2.28;;;;;;;18.32;65.12;99265.84;10508890;28;20044;-64
2023/04/28 17:05:55;;;;;;;3.92;2.25;;;;;;;18.16;65.71;99261.22;10509117;28;20408;-64
2023/04/28 17:10:59;;;;;;;4.50;1.95;;;;;;;18.19;65.88;99260.94;10507808;28;20079;-65
2023/04/28 17:16:01;;;;;;;5.55;2.35;;;;;;;18.02;66.00;99276.81;10501183;28;20315;-65
2023/04/28 17:21:04;;;;;;;3.22;2.00;;;;;;;17.80;66.48;99291.38;10501942;28;20645;-65
2023/04/28 17:26:06;;;;;;;3.97;2.00;;;;;;;17.93;65.79;99286.53;10502878;28;20517;-64
2023/04/28 17:31:08;;;;;;;5.72;2.25;;;;;;;17.81;65.99;99295.69;10503173;28;20126;-64
2023/04/28 17:36:10;;;;;;;5.93;2.03;;;;;;;17.68;66.43;99309.31;10504269;28;20783;-65
2023/04/28 17:41:15;;;;;;;8.43;2.67;;;;;;;17.51;66.55;99312.75;10506513;28;20046;-67
2023/04/28 17:46:21;;;;;;;7.53;2.17;;;;;;;17.40;65.73;99310.34;10505447;28;20280;-65
2023/04/28 17:51:23;;;;;;;5.25;2.70;;;;;;;17.26;66.62;99313.44;10486084;28;20412;-65
2023/04/28 17:56:26;;;;;;;6.50;3.03;;;;;;;17.08;67.08;99323.16;10507697;28;20453;-64
2023/04/28 18:01:28;;;;;;;10.40;3.92;;;;;;;17.10;67.59;99339.69;10505962;28;20044;-64
2023/04/28 18:06:30;;;;;;;6.38;3.28;;;;;;;17.18;67.45;99328.41;10488906;28;20041;-64
2023/04/28 18:11:31;;;;;;;5.57;3.30;;;;;;;17.14;67.54;99348.19;10519164;28;20074;-63
2023/04/28 18:16:33;;;;;;;7.18;4.30;;;;;;;17.07;67.77;99347.09;10503165;28;20044;-63
2023/04/28 18:21:36;;;;;;;8.35;4.00;;;;;;;17.01;67.45;99356.44;10500201;28;20571;-63
2023/04/28 18:26:38;;;;;;;4.53;3.30;;;;;;;16.98;67.50;99362.00;10479090;28;20515;-63
2023/04/28 18:31:41;;;;;;;7.32;3.20;;;;;;;16.70;67.84;99363.78;10506886;28;20662;-63
2023/04/28 18:36:45;;;;;;;7.50;4.32;;;;;;;16.53;68.42;99382.19;10512841;28;20066;-63
2023/04/28 18:41:47;;;;;;;7.57;2.80;;;;;;;16.26;66.98;99385.53;10512674;28;20899;-63
2023/04/28 18:46:50;;;;;;;4.55;2.58;;;;;;;16.00;65.84;99403.72;10496136;28;20116;-62
2023/04/28 18:51:52;;;;;;;6.60;2.90;;;;;;;15.67;66.22;99422.56;10497979;28;20515;-62
2023/04/28 18:56:54;;;;;;;5.35;2.80;;;;;;;15.46;65.44;99432.31;10516494;28;20055;-62
2023/04/28 19:01:55;;;;;;;6.97;3.55;;;;;;;15.18;65.24;99436.53;10513718;28;20032;-62
2023/04/28 19:06:57;;;;;;;4.47;2.90;;;;;;;15.05;65.43;99441.19;10515564;28;20151;-62
2023/04/28 19:11:59;;;;;;;6.53;3.03;;;;;;;14.94;64.90;99466.78;10515065;28;20067;-58
2023/04/28 19:17:01;;;;;;;6.07;2.65;;;;;;;14.80;64.35;99464.47;10492798;28;20315;-61
2023/04/28 19:22:03;;;;;;;4.63;2.50;;;;;;;14.71;64.66;99475.75;10507056;28;20048;-60
2023/04/28 19:27:05;;;;;;;5.82;2.80;;;;;;;14.69;64.37;99490.84;10507416;28;20141;-61
2023/04/28 19:32:08;;;;;;;5.28;3.10;;;;;;;14.60;64.94;99497.72;10509585;28;20187;-61
2023/04/28 19:37:11;;;;;;;5.57;2.83;;;;;;;14.50;64.98;99508.19;10514245;28;20095;-61
2023/04/28 19:42:13;;;;;;;5.20;2.72;;;;;;;14.39;64.47;99513.44;10494754;28;20087;-60
2023/04/28 19:47:22;;;;;;;5.68;3.08;;;;;;;14.44;64.77;99520.97;10513230;28;20048;-61
2023/04/28 19:52:24;;;;;;;7.03;3.35;;;;;;;14.37;64.94;99520.63;10511442;28;20036;-61
2023/04/28 19:57:27;;;;;;;6.03;3.60;;;;;;;14.21;64.98;99522.00;10474732;28;20040;-60
2023/04/28 20:02:29;;;;;;;6.90;3.50;;;;;;;14.07;65.41;99527.53;10505910;28;20051;-61
2023/04/28 20:07:30;;;;;;;6.70;2.55;;;;;;;13.96;65.35;99535.47;10491550;28;20055;-61
2023/04/28 20:12:32;;;;;;;6.22;3.25;;;;;;;13.86;65.38;99540.59;10511260;28;20044;-60
2023/04/28 20:17:34;;;;;;;5.22;2.67;;;;;;;13.78;65.60;99533.31;10510147;28;20047;-61
2023/04/28 20:22:36;;;;;;;7.45;3.00;;;;;;;13.76;65.56;99531.75;10510464;28;20051;-61
2023/04/28 20:27:38;;;;;;;10.05;3.78;;;;;;;13.68;65.96;99537.63;10508760;28;20052;-61
2023/04/28 20:32:40;;;;;;;6.18;2.88;;;;;;;13.65;66.17;99537.03;10525473;28;20060;-61
2023/04/28 20:37:41;;;;;;;5.80;3.00;;;;;;;13.65;65.83;99531.78;10507773;28;20558;-61
2023/04/28 20:42:43;;;;;;;7.10;2.90;;;;;;;13.56;65.49;99533.34;10511167;28;20058;-60
2023/04/28 20:47:45;;;;;;;6.03;3.67;;;;;;;13.47;65.46;99541.13;10511611;28;20670;-60
2023/04/28 20:52:47;;;;;;;4.93;3.90;;;;;;;13.38;66.17;99533.91;10476229;28;20075;-61
2023/04/28 20:57:49;;;;;;;10.65;7.90;;;;;;;13.26;66.72;99534.84;10506510;28;20504;-61
2023/04/28 21:02:51;;;;;;;7.20;5.53;;;;;;;13.15;67.03;99547.97;10509752;28;20043;-61
2023/04/28 21:07:53;;;;;;;8.00;4.85;;;;;;;13.06;67.25;99530.28;10508863;28;20094;-61
2023/04/28 21:12:55;;;;;;;7.20;3.95;;;;;;;12.98;67.24;99536.94;10525479;28;20039;-61
2023/04/28 21:17:56;;;;;;;8.68;6.13;;;;;;;12.92;68.00;99544.47;10509927;28;20048;-61
2023/04/28 21:22:58;;;;;;;10.13;6.38;;;;;;;12.92;67.68;99534.78;10509739;28;20516;-61
2023/04/28 21:28:00;;;;;;;9.48;6.13;;;;;;;12.89;67.84;99540.28;10506713;28;20334;-61
2023/04/28 21:33:02;;;;;;;10.95;7.88;;;;;;;12.67;67.85;99542.84;10506857;28;20055;-61
2023/04/28 21:38:04;;;;;;;6.47;4.78;;;;;;;12.57;68.08;99547.09;10507414;28;20467;-61
2023/04/28 21:43:07;;;;;;;11.13;5.40;;;;;;;12.48;68.30;99546.91;10508228;28;20504;-61
2023/04/28 21:48:09;;;;;;;6.80;5.10;;;;;;;12.39;68.30;99548.47;10509193;28;20050;-61
2023/04/28 21:53:11;;;;;;;12.38;6.30;;;;;;;12.33;68.28;99548.91;10507871;28;20076;-61
2023/04/28 21:58:14;;;;;;;10.80;5.97;;;;;;;12.35;67.72;99540.91;10508331;28;20048;-61
2023/04/28 22:03:15;;;;;;;9.75;5.93;;;;;;;12.24;68.32;99549.53;10507480;28;20047;-60
2023/04/28 22:08:18;;;;;;;9.30;5.53;;;;;;;12.35;68.33;99538.28;10514736;28;20198;-61
2023/04/28 22:13:21;;;;;;;10.13;5.30;;;;;;;12.44;67.96;99535.81;10517568;28;20051;-61
2023/04/28 22:18:23;;;;;;;11.40;7.22;;;;;;;12.39;68.00;99542.38;10516929;28;20201;-61
2023/04/28 22:23:25;;;;;;;11.88;5.80;;;;;;;12.38;68.15;99541.53;10515764;28;20050;-61
2023/04/28 22:28:27;;;;;;;9.45;5.30;;;;;;;12.40;67.86;99555.34;10516374;28;20048;-61
2023/04/28 22:33:28;;;;;;;7.75;4.40;;;;;;;12.37;67.69;99544.25;10515190;28;20048;-61
2023/04/28 22:38:30;;;;;;;6.40;5.15;;;;;;;12.38;68.08;99552.00;10515001;28;20048;-61
2023/04/28 22:43:32;;;;;;;6.57;4.88;;;;;;;12.51;67.51;99547.56;10515455;28;20129;-61
2023/04/28 22:48:34;;;;;;;7.95;4.53;;;;;;;12.55;67.33;99538.50;10497809;28;20368;-61
2023/04/28 22:53:36;;;;;;;8.38;4.40;;;;;;;12.57;67.11;99541.00;10515123;28;20400;-61
2023/04/28 22:58:37;;;;;;;7.03;4.53;;;;;;;12.40;67.55;99542.25;10514614;28;20042;-61
2023/04/28 23:03:40;;;;;;;5.10;3.63;;;;;;;12.30;67.50;99546.50;10516749;28;20514;-61
2023/04/28 23:08:42;;;;;;;6.05;4.88;;;;;;;12.20;67.51;99555.09;10515034;28;20071;-61
2023/04/28 23:13:44;;;;;;;9.48;3.55;;;;;;;12.04;67.81;99553.59;10514326;28;20052;-61
2023/04/28 23:18:46;;;;;;;5.30;2.40;;;;;;;11.93;68.46;99563.16;10513478;28;20043;-61
2023/04/28 23:23:48;;;;;;;6.07;2.78;;;;;;;11.93;68.07;99566.59;10511756;28;20043;-61